sensor_id;sensor_type;location;lat;lon;timestamp;P1;durP1;ratioP1;P2;durP2;ratioP2
16642;SDS011;8435;52.184;5.406;2023-07-24T00:01:22;3.45;;;3.15;;
16642;SDS011;8435;52.184;5.406;2023-07-24T00:03:52;3.72;;;3.42;;
16642;SDS011;8435;52.184;5.406;2023-07-24T00:06:21;3.70;;;3.40;;
16642;SDS011;8435;52.184;5.406;2023-07-24T00:08:48;3.65;;;3.35;;
16642;SDS011;8435;52.184;5.406;2023-07-24T00:11:16;4.55;;;3.80;;
16642;SDS011;8435;52.184;5.406;2023-07-24T00:13:43;3.53;;;3.22;;
16642;SDS011;8435;52.184;5.406;2023-07-24T00:16:11;3.28;;;3.08;;
16642;SDS011;8435;52.184;5.406;2023-07-24T00:18:37;4.05;;;3.75;;
16642;SDS011;8435;52.184;5.406;2023-07-24T00:21:04;3.83;;;3.53;;
16642;SDS011;8435;52.184;5.406;2023-07-24T00:23:31;3.90;;;3.60;;
16642;SDS011;8435;52.184;5.406;2023-07-24T00:25:58;3.67;;;3.38;;
16642;SDS011;8435;52.184;5.406;2023-07-24T00:28:26;3.90;;;3.60;;
16642;SDS011;8435;52.184;5.406;2023-07-24T00:30:53;3.78;;;3.47;;
16642;SDS011;8435;52.184;5.406;2023-07-24T00:33:21;3.95;;;3.65;;
16642;SDS011;8435;52.184;5.406;2023-07-24T00:35:48;3.28;;;3.08;;
16642;SDS011;8435;52.184;5.406;2023-07-24T00:38:15;4.32;;;3.92;;
16642;SDS011;8435;52.184;5.406;2023-07-24T00:40:41;3.50;;;3.30;;
16642;SDS011;8435;52.184;5.406;2023-07-24T00:43:08;3.58;;;3.28;;
16642;SDS011;8435;52.184;5.406;2023-07-24T00:45:36;3.80;;;3.50;;
16642;SDS011;8435;52.184;5.406;2023-07-24T00:48:03;3.90;;;3.60;;
16642;SDS011;8435;52.184;5.406;2023-07-24T00:50:31;3.20;;;2.97;;
16642;SDS011;8435;52.184;5.406;2023-07-24T00:52:58;3.92;;;3.63;;
16642;SDS011;8435;52.184;5.406;2023-07-24T00:55:28;2.97;;;2.78;;
16642;SDS011;8435;52.184;5.406;2023-07-24T00:57:58;3.20;;;2.90;;
16642;SDS011;8435;52.184;5.406;2023-07-24T01:00:26;3.50;;;3.08;;
16642;SDS011;8435;52.184;5.406;2023-07-24T01:02:54;3.40;;;3.20;;
16642;SDS011;8435;52.184;5.406;2023-07-24T01:05:24;3.22;;;3.03;;
16642;SDS011;8435;52.184;5.406;2023-07-24T01:07:51;3.58;;;3.38;;
16642;SDS011;8435;52.184;5.406;2023-07-24T01:10:18;3.22;;;3.03;;
16642;SDS011;8435;52.184;5.406;2023-07-24T01:12:45;3.53;;;3.22;;
16642;SDS011;8435;52.184;5.406;2023-07-24T01:15:23;3.60;;;3.38;;
16642;SDS011;8435;52.184;5.406;2023-07-24T01:17:57;4.07;;;3.65;;
16642;SDS011;8435;52.184;5.406;2023-07-24T01:20:27;3.90;;;3.60;;
16642;SDS011;8435;52.184;5.406;2023-07-24T01:23:04;4.20;;;3.80;;
16642;SDS011;8435;52.184;5.406;2023-07-24T01:25:49;3.92;;;3.63;;
16642;SDS011;8435;52.184;5.406;2023-07-24T01:28:21;3.50;;;3.30;;
16642;SDS011;8435;52.184;5.406;2023-07-24T01:30:48;3.90;;;3.53;;
16642;SDS011;8435;52.184;5.406;2023-07-24T01:33:16;3.33;;;3.13;;
16642;SDS011;8435;52.184;5.406;2023-07-24T01:35:43;3.67;;;3.40;;
16642;SDS011;8435;52.184;5.406;2023-07-24T01:38:11;3.45;;;3.22;;
16642;SDS011;8435;52.184;5.406;2023-07-24T01:40:39;3.90;;;3.60;;
16642;SDS011;8435;52.184;5.406;2023-07-24T01:43:10;3.90;;;3.55;;
16642;SDS011;8435;52.184;5.406;2023-07-24T01:45:37;3.45;;;3.15;;
16642;SDS011;8435;52.184;5.406;2023-07-24T01:48:04;3.95;;;3.65;;
16642;SDS011;8435;52.184;5.406;2023-07-24T01:50:31;3.83;;;3.55;;
16642;SDS011;8435;52.184;5.406;2023-07-24T01:52:58;4.00;;;3.70;;
16642;SDS011;8435;52.184;5.406;2023-07-24T01:55:25;3.90;;;3.60;;
16642;SDS011;8435;52.184;5.406;2023-07-24T01:57:52;4.38;;;3.90;;
16642;SDS011;8435;52.184;5.406;2023-07-24T02:00:20;3.60;;;3.30;;
16642;SDS011;8435;52.184;5.406;2023-07-24T02:02:50;3.42;;;3.22;;
16642;SDS011;8435;52.184;5.406;2023-07-24T02:05:17;3.70;;;3.40;;
16642;SDS011;8435;52.184;5.406;2023-07-24T02:07:44;3.72;;;3.42;;
16642;SDS011;8435;52.184;5.406;2023-07-24T02:10:11;3.05;;;2.85;;
16642;SDS011;8435;52.184;5.406;2023-07-24T02:12:37;3.10;;;2.90;;
16642;SDS011;8435;52.184;5.406;2023-07-24T02:15:05;3.60;;;3.30;;
16642;SDS011;8435;52.184;5.406;2023-07-24T02:17:34;3.15;;;2.80;;
16642;SDS011;8435;52.184;5.406;2023-07-24T02:20:01;3.20;;;3.00;;
16642;SDS011;8435;52.184;5.406;2023-07-24T02:22:28;2.85;;;2.65;;
16642;SDS011;8435;52.184;5.406;2023-07-24T02:24:55;3.00;;;2.80;;
16642;SDS011;8435;52.184;5.406;2023-07-24T02:27:25;3.05;;;2.85;;
16642;SDS011;8435;52.184;5.406;2023-07-24T02:29:53;3.65;;;3.35;;
16642;SDS011;8435;52.184;5.406;2023-07-24T02:32:20;3.10;;;2.85;;
16642;SDS011;8435;52.184;5.406;2023-07-24T02:34:49;3.35;;;3.05;;
16642;SDS011;8435;52.184;5.406;2023-07-24T02:37:20;3.20;;;2.90;;
16642;SDS011;8435;52.184;5.406;2023-07-24T02:39:46;3.20;;;3.00;;
16642;SDS011;8435;52.184;5.406;2023-07-24T02:42:16;3.33;;;3.10;;
16642;SDS011;8435;52.184;5.406;2023-07-24T02:44:44;2.90;;;2.70;;
16642;SDS011;8435;52.184;5.406;2023-07-24T02:47:10;3.70;;;3.33;;
16642;SDS011;8435;52.184;5.406;2023-07-24T02:49:40;3.20;;;3.00;;
16642;SDS011;8435;52.184;5.406;2023-07-24T02:52:08;3.30;;;3.10;;
16642;SDS011;8435;52.184;5.406;2023-07-24T02:54:35;2.92;;;2.72;;
16642;SDS011;8435;52.184;5.406;2023-07-24T02:57:01;3.50;;;3.20;;
16642;SDS011;8435;52.184;5.406;2023-07-24T02:59:29;3.03;;;2.83;;
16642;SDS011;8435;52.184;5.406;2023-07-24T03:01:59;3.08;;;2.80;;
16642;SDS011;8435;52.184;5.406;2023-07-24T03:04:26;2.95;;;2.75;;
16642;SDS011;8435;52.184;5.406;2023-07-24T03:06:53;3.30;;;3.00;;
16642;SDS011;8435;52.184;5.406;2023-07-24T03:09:21;3.53;;;3.22;;
16642;SDS011;8435;52.184;5.406;2023-07-24T03:11:51;3.40;;;3.10;;
16642;SDS011;8435;52.184;5.406;2023-07-24T03:14:17;3.50;;;3.20;;
16642;SDS011;8435;52.184;5.406;2023-07-24T03:16:44;3.20;;;3.00;;
16642;SDS011;8435;52.184;5.406;2023-07-24T03:19:11;3.72;;;3.25;;
16642;SDS011;8435;52.184;5.406;2023-07-24T03:21:42;3.38;;;3.13;;
16642;SDS011;8435;52.184;5.406;2023-07-24T03:24:09;3.97;;;3.60;;
16642;SDS011;8435;52.184;5.406;2023-07-24T03:26:37;4.00;;;3.65;;
16642;SDS011;8435;52.184;5.406;2023-07-24T03:29:04;3.50;;;3.20;;
16642;SDS011;8435;52.184;5.406;2023-07-24T03:31:31;4.03;;;3.75;;
16642;SDS011;8435;52.184;5.406;2023-07-24T03:33:58;3.70;;;3.40;;
16642;SDS011;8435;52.184;5.406;2023-07-24T03:36:25;3.83;;;3.42;;
16642;SDS011;8435;52.184;5.406;2023-07-24T03:38:52;3.50;;;3.20;;
16642;SDS011;8435;52.184;5.406;2023-07-24T03:41:19;3.22;;;2.80;;
16642;SDS011;8435;52.184;5.406;2023-07-24T03:43:47;3.40;;;3.10;;
16642;SDS011;8435;52.184;5.406;2023-07-24T03:46:14;3.80;;;3.33;;
16642;SDS011;8435;52.184;5.406;2023-07-24T03:48:41;4.13;;;3.78;;
16642;SDS011;8435;52.184;5.406;2023-07-24T03:51:08;3.83;;;3.53;;
16642;SDS011;8435;52.184;5.406;2023-07-24T03:53:35;3.58;;;3.28;;
16642;SDS011;8435;52.184;5.406;2023-07-24T03:56:01;3.67;;;3.47;;
16642;SDS011;8435;52.184;5.406;2023-07-24T03:58:28;4.45;;;4.13;;
16642;SDS011;8435;52.184;5.406;2023-07-24T04:00:57;4.00;;;3.70;;
16642;SDS011;8435;52.184;5.406;2023-07-24T04:03:24;4.07;;;3.78;;
16642;SDS011;8435;52.184;5.406;2023-07-24T04:05:51;4.63;;;4.28;;
16642;SDS011;8435;52.184;5.406;2023-07-24T04:08:17;4.15;;;3.75;;
16642;SDS011;8435;52.184;5.406;2023-07-24T04:10:44;4.18;;;3.88;;
16642;SDS011;8435;52.184;5.406;2023-07-24T04:13:11;4.55;;;4.25;;
16642;SDS011;8435;52.184;5.406;2023-07-24T04:15:38;5.07;;;4.63;;
16642;SDS011;8435;52.184;5.406;2023-07-24T04:18:06;4.53;;;4.15;;
16642;SDS011;8435;52.184;5.406;2023-07-24T04:20:34;4.72;;;4.30;;
16642;SDS011;8435;52.184;5.406;2023-07-24T04:23:00;4.55;;;4.15;;
16642;SDS011;8435;52.184;5.406;2023-07-24T04:25:27;5.03;;;4.53;;
16642;SDS011;8435;52.184;5.406;2023-07-24T04:27:54;4.65;;;4.25;;
16642;SDS011;8435;52.184;5.406;2023-07-24T04:30:21;7.20;;;4.85;;
16642;SDS011;8435;52.184;5.406;2023-07-24T04:32:48;4.85;;;4.30;;
16642;SDS011;8435;52.184;5.406;2023-07-24T04:35:17;4.72;;;4.32;;
16642;SDS011;8435;52.184;5.406;2023-07-24T04:37:43;5.00;;;4.60;;
16642;SDS011;8435;52.184;5.406;2023-07-24T04:40:11;4.82;;;4.40;;
16642;SDS011;8435;52.184;5.406;2023-07-24T04:42:38;4.80;;;4.40;;
16642;SDS011;8435;52.184;5.406;2023-07-24T04:45:05;5.38;;;4.95;;
16642;SDS011;8435;52.184;5.406;2023-07-24T04:47:33;4.85;;;4.45;;
16642;SDS011;8435;52.184;5.406;2023-07-24T04:50:03;5.13;;;4.65;;
16642;SDS011;8435;52.184;5.406;2023-07-24T04:52:32;4.97;;;4.50;;
16642;SDS011;8435;52.184;5.406;2023-07-24T04:55:01;5.28;;;4.88;;
16642;SDS011;8435;52.184;5.406;2023-07-24T04:57:28;5.18;;;4.78;;
16642;SDS011;8435;52.184;5.406;2023-07-24T04:59:55;6.30;;;5.35;;
16642;SDS011;8435;52.184;5.406;2023-07-24T05:02:22;4.57;;;4.18;;
16642;SDS011;8435;52.184;5.406;2023-07-24T05:04:49;6.80;;;4.32;;
16642;SDS011;8435;52.184;5.406;2023-07-24T05:07:15;4.93;;;4.53;;
16642;SDS011;8435;52.184;5.406;2023-07-24T05:09:44;5.68;;;5.18;;
16642;SDS011;8435;52.184;5.406;2023-07-24T05:12:10;4.78;;;4.40;;
16642;SDS011;8435;52.184;5.406;2023-07-24T05:14:37;4.63;;;4.30;;
16642;SDS011;8435;52.184;5.406;2023-07-24T05:17:04;5.88;;;5.07;;
16642;SDS011;8435;52.184;5.406;2023-07-24T05:19:31;5.53;;;5.03;;
16642;SDS011;8435;52.184;5.406;2023-07-24T05:22:02;5.28;;;4.88;;
16642;SDS011;8435;52.184;5.406;2023-07-24T05:24:29;5.70;;;5.20;;
16642;SDS011;8435;52.184;5.406;2023-07-24T05:26:57;5.75;;;5.25;;
16642;SDS011;8435;52.184;5.406;2023-07-24T05:29:24;5.43;;;4.93;;
16642;SDS011;8435;52.184;5.406;2023-07-24T05:31:51;5.72;;;5.22;;
16642;SDS011;8435;52.184;5.406;2023-07-24T05:34:18;5.45;;;5.05;;
16642;SDS011;8435;52.184;5.406;2023-07-24T05:36:48;5.80;;;5.18;;
16642;SDS011;8435;52.184;5.406;2023-07-24T05:39:14;5.65;;;5.07;;
16642;SDS011;8435;52.184;5.406;2023-07-24T05:41:41;5.40;;;4.95;;
16642;SDS011;8435;52.184;5.406;2023-07-24T05:44:10;5.20;;;4.80;;
16642;SDS011;8435;52.184;5.406;2023-07-24T05:46:37;6.00;;;5.40;;
16642;SDS011;8435;52.184;5.406;2023-07-24T05:49:03;6.07;;;5.50;;
16642;SDS011;8435;52.184;5.406;2023-07-24T05:51:30;5.90;;;5.30;;
16642;SDS011;8435;52.184;5.406;2023-07-24T05:53:57;5.32;;;4.82;;
16642;SDS011;8435;52.184;5.406;2023-07-24T05:56:24;5.85;;;5.07;;
16642;SDS011;8435;52.184;5.406;2023-07-24T05:58:51;5.65;;;5.15;;
16642;SDS011;8435;52.184;5.406;2023-07-24T06:01:19;5.18;;;4.68;;
16642;SDS011;8435;52.184;5.406;2023-07-24T06:03:49;4.82;;;4.43;;
16642;SDS011;8435;52.184;5.406;2023-07-24T06:06:18;5.45;;;4.93;;
16642;SDS011;8435;52.184;5.406;2023-07-24T06:08:45;5.93;;;5.43;;
16642;SDS011;8435;52.184;5.406;2023-07-24T06:11:16;5.80;;;5.10;;
16642;SDS011;8435;52.184;5.406;2023-07-24T06:13:43;5.90;;;4.95;;
16642;SDS011;8435;52.184;5.406;2023-07-24T06:16:10;5.00;;;4.50;;
16642;SDS011;8435;52.184;5.406;2023-07-24T06:18:40;5.05;;;4.53;;
16642;SDS011;8435;52.184;5.406;2023-07-24T06:21:10;4.88;;;4.45;;
16642;SDS011;8435;52.184;5.406;2023-07-24T06:23:37;6.13;;;4.45;;
16642;SDS011;8435;52.184;5.406;2023-07-24T06:26:04;5.63;;;5.03;;
16642;SDS011;8435;52.184;5.406;2023-07-24T06:28:31;5.15;;;4.53;;
16642;SDS011;8435;52.184;5.406;2023-07-24T06:30:58;4.75;;;4.35;;
16642;SDS011;8435;52.184;5.406;2023-07-24T06:33:25;5.07;;;4.32;;
16642;SDS011;8435;52.184;5.406;2023-07-24T06:35:56;6.03;;;4.65;;
16642;SDS011;8435;52.184;5.406;2023-07-24T06:38:23;4.82;;;3.95;;
16642;SDS011;8435;52.184;5.406;2023-07-24T06:40:49;5.35;;;4.40;;
16642;SDS011;8435;52.184;5.406;2023-07-24T06:43:17;4.68;;;4.30;;
16642;SDS011;8435;52.184;5.406;2023-07-24T06:45:43;4.32;;;3.92;;
16642;SDS011;8435;52.184;5.406;2023-07-24T06:48:10;4.97;;;4.30;;
16642;SDS011;8435;52.184;5.406;2023-07-24T06:50:37;4.63;;;4.25;;
16642;SDS011;8435;52.184;5.406;2023-07-24T06:53:05;4.60;;;4.20;;
16642;SDS011;8435;52.184;5.406;2023-07-24T06:55:32;7.53;;;4.60;;
16642;SDS011;8435;52.184;5.406;2023-07-24T06:57:59;4.68;;;4.28;;
16642;SDS011;8435;52.184;5.406;2023-07-24T07:00:26;4.85;;;4.40;;
16642;SDS011;8435;52.184;5.406;2023-07-24T07:02:53;4.50;;;4.07;;
16642;SDS011;8435;52.184;5.406;2023-07-24T07:05:19;5.22;;;3.90;;
16642;SDS011;8435;52.184;5.406;2023-07-24T07:07:46;5.70;;;4.13;;
16642;SDS011;8435;52.184;5.406;2023-07-24T07:10:15;5.07;;;4.22;;
16642;SDS011;8435;52.184;5.406;2023-07-24T07:12:41;4.50;;;4.10;;
16642;SDS011;8435;52.184;5.406;2023-07-24T07:15:09;4.72;;;3.75;;
16642;SDS011;8435;52.184;5.406;2023-07-24T07:17:36;5.53;;;3.95;;
16642;SDS011;8435;52.184;5.406;2023-07-24T07:20:03;4.40;;;3.70;;
16642;SDS011;8435;52.184;5.406;2023-07-24T07:22:30;5.40;;;4.00;;
16642;SDS011;8435;52.184;5.406;2023-07-24T07:24:57;4.43;;;3.78;;
16642;SDS011;8435;52.184;5.406;2023-07-24T07:27:26;4.13;;;3.70;;
16642;SDS011;8435;52.184;5.406;2023-07-24T07:29:52;3.90;;;3.60;;
16642;SDS011;8435;52.184;5.406;2023-07-24T07:32:19;4.05;;;3.65;;
16642;SDS011;8435;52.184;5.406;2023-07-24T07:34:46;4.43;;;3.95;;
16642;SDS011;8435;52.184;5.406;2023-07-24T07:37:13;4.30;;;3.72;;
16642;SDS011;8435;52.184;5.406;2023-07-24T07:39:40;5.03;;;3.88;;
16642;SDS011;8435;52.184;5.406;2023-07-24T07:42:07;3.67;;;3.33;;
16642;SDS011;8435;52.184;5.406;2023-07-24T07:44:35;4.22;;;3.83;;
16642;SDS011;8435;52.184;5.406;2023-07-24T07:47:02;4.88;;;4.28;;
16642;SDS011;8435;52.184;5.406;2023-07-24T07:49:29;6.18;;;4.53;;
16642;SDS011;8435;52.184;5.406;2023-07-24T07:51:56;4.85;;;3.88;;
16642;SDS011;8435;52.184;5.406;2023-07-24T07:54:24;5.75;;;4.10;;
16642;SDS011;8435;52.184;5.406;2023-07-24T07:56:52;6.45;;;4.07;;
16642;SDS011;8435;52.184;5.406;2023-07-24T07:59:19;4.90;;;3.72;;
16642;SDS011;8435;52.184;5.406;2023-07-24T08:01:48;4.38;;;3.85;;
16642;SDS011;8435;52.184;5.406;2023-07-24T08:04:15;5.13;;;3.33;;
16642;SDS011;8435;52.184;5.406;2023-07-24T08:06:43;3.85;;;3.45;;
16642;SDS011;8435;52.184;5.406;2023-07-24T08:09:10;4.90;;;4.28;;
16642;SDS011;8435;52.184;5.406;2023-07-24T08:11:37;4.53;;;4.13;;
16642;SDS011;8435;52.184;5.406;2023-07-24T08:14:04;4.05;;;3.75;;
16642;SDS011;8435;52.184;5.406;2023-07-24T08:16:31;5.00;;;4.50;;
16642;SDS011;8435;52.184;5.406;2023-07-24T08:19:00;5.38;;;3.85;;
16642;SDS011;8435;52.184;5.406;2023-07-24T08:21:27;4.25;;;3.60;;
16642;SDS011;8435;52.184;5.406;2023-07-24T08:23:53;4.63;;;4.15;;
16642;SDS011;8435;52.184;5.406;2023-07-24T08:26:22;4.75;;;4.15;;
16642;SDS011;8435;52.184;5.406;2023-07-24T08:28:52;5.78;;;4.03;;
16642;SDS011;8435;52.184;5.406;2023-07-24T08:31:19;3.92;;;3.35;;
16642;SDS011;8435;52.184;5.406;2023-07-24T08:33:46;4.47;;;4.10;;
16642;SDS011;8435;52.184;5.406;2023-07-24T08:36:14;4.40;;;4.00;;
16642;SDS011;8435;52.184;5.406;2023-07-24T08:38:41;4.78;;;4.28;;
16642;SDS011;8435;52.184;5.406;2023-07-24T08:41:08;4.93;;;4.22;;
16642;SDS011;8435;52.184;5.406;2023-07-24T08:43:37;4.78;;;3.95;;
16642;SDS011;8435;52.184;5.406;2023-07-24T08:46:08;5.03;;;4.15;;
16642;SDS011;8435;52.184;5.406;2023-07-24T08:48:37;3.78;;;3.47;;
16642;SDS011;8435;52.184;5.406;2023-07-24T08:51:05;5.03;;;4.28;;
16642;SDS011;8435;52.184;5.406;2023-07-24T08:53:35;4.13;;;3.72;;
16642;SDS011;8435;52.184;5.406;2023-07-24T08:56:08;5.53;;;4.10;;
16642;SDS011;8435;52.184;5.406;2023-07-24T08:58:38;4.55;;;3.70;;
16642;SDS011;8435;52.184;5.406;2023-07-24T09:01:05;4.32;;;3.92;;
16642;SDS011;8435;52.184;5.406;2023-07-24T09:03:33;4.60;;;4.20;;
16642;SDS011;8435;52.184;5.406;2023-07-24T09:06:01;4.50;;;4.07;;
16642;SDS011;8435;52.184;5.406;2023-07-24T09:08:29;4.13;;;3.72;;
16642;SDS011;8435;52.184;5.406;2023-07-24T09:10:58;5.30;;;3.85;;
16642;SDS011;8435;52.184;5.406;2023-07-24T09:13:24;4.25;;;3.85;;
16642;SDS011;8435;52.184;5.406;2023-07-24T09:15:52;5.25;;;3.88;;
16642;SDS011;8435;52.184;5.406;2023-07-24T09:18:19;4.22;;;3.83;;
16642;SDS011;8435;52.184;5.406;2023-07-24T09:20:45;4.00;;;3.70;;
16642;SDS011;8435;52.184;5.406;2023-07-24T09:23:13;4.25;;;3.85;;
16642;SDS011;8435;52.184;5.406;2023-07-24T09:25:42;6.18;;;4.22;;
16642;SDS011;8435;52.184;5.406;2023-07-24T09:28:11;5.05;;;4.57;;
16642;SDS011;8435;52.184;5.406;2023-07-24T09:30:39;4.97;;;4.45;;
16642;SDS011;8435;52.184;5.406;2023-07-24T09:33:09;4.95;;;4.28;;
16642;SDS011;8435;52.184;5.406;2023-07-24T09:35:36;5.30;;;4.80;;
16642;SDS011;8435;52.184;5.406;2023-07-24T09:38:03;4.65;;;4.25;;
16642;SDS011;8435;52.184;5.406;2023-07-24T09:40:37;4.22;;;3.83;;
16642;SDS011;8435;52.184;5.406;2023-07-24T09:43:20;4.90;;;4.30;;
16642;SDS011;8435;52.184;5.406;2023-07-24T09:45:48;5.30;;;4.13;;
16642;SDS011;8435;52.184;5.406;2023-07-24T09:48:16;4.50;;;4.10;;
16642;SDS011;8435;52.184;5.406;2023-07-24T09:50:45;4.97;;;4.22;;
16642;SDS011;8435;52.184;5.406;2023-07-24T09:53:13;4.97;;;4.47;;
16642;SDS011;8435;52.184;5.406;2023-07-24T09:55:47;5.00;;;4.50;;
16642;SDS011;8435;52.184;5.406;2023-07-24T09:58:22;4.80;;;4.30;;
16642;SDS011;8435;52.184;5.406;2023-07-24T10:00:51;4.20;;;3.80;;
16642;SDS011;8435;52.184;5.406;2023-07-24T10:03:20;6.15;;;4.43;;
16642;SDS011;8435;52.184;5.406;2023-07-24T10:05:48;4.72;;;4.32;;
16642;SDS011;8435;52.184;5.406;2023-07-24T10:08:16;5.30;;;4.60;;
16642;SDS011;8435;52.184;5.406;2023-07-24T10:10:45;22.75;;;10.07;;
16642;SDS011;8435;52.184;5.406;2023-07-24T10:13:13;11.70;;;8.02;;
16642;SDS011;8435;52.184;5.406;2023-07-24T10:15:42;6.57;;;5.28;;
16642;SDS011;8435;52.184;5.406;2023-07-24T10:18:09;7.28;;;4.85;;
16642;SDS011;8435;52.184;5.406;2023-07-24T10:20:38;5.20;;;4.18;;
16642;SDS011;8435;52.184;5.406;2023-07-24T10:23:06;4.93;;;4.43;;
16642;SDS011;8435;52.184;5.406;2023-07-24T10:25:35;4.78;;;4.38;;
16642;SDS011;8435;52.184;5.406;2023-07-24T10:28:06;5.78;;;4.22;;
16642;SDS011;8435;52.184;5.406;2023-07-24T10:30:36;4.70;;;4.30;;
16642;SDS011;8435;52.184;5.406;2023-07-24T10:33:05;4.78;;;4.28;;
16642;SDS011;8435;52.184;5.406;2023-07-24T10:35:38;4.50;;;4.20;;
16642;SDS011;8435;52.184;5.406;2023-07-24T10:38:07;4.35;;;3.92;;
16642;SDS011;8435;52.184;5.406;2023-07-24T10:40:35;4.32;;;3.95;;
16642;SDS011;8435;52.184;5.406;2023-07-24T10:43:05;4.47;;;3.92;;
16642;SDS011;8435;52.184;5.406;2023-07-24T10:45:39;5.03;;;4.20;;
16642;SDS011;8435;52.184;5.406;2023-07-24T10:48:14;4.55;;;4.15;;
16642;SDS011;8435;52.184;5.406;2023-07-24T10:50:42;4.32;;;3.63;;
16642;SDS011;8435;52.184;5.406;2023-07-24T10:53:09;6.22;;;4.05;;
16642;SDS011;8435;52.184;5.406;2023-07-24T10:55:37;4.50;;;4.10;;
16642;SDS011;8435;52.184;5.406;2023-07-24T10:58:05;4.32;;;3.90;;
16642;SDS011;8435;52.184;5.406;2023-07-24T11:00:38;4.07;;;3.67;;
16642;SDS011;8435;52.184;5.406;2023-07-24T11:03:07;5.35;;;4.60;;
16642;SDS011;8435;52.184;5.406;2023-07-24T11:05:39;4.70;;;4.10;;
16642;SDS011;8435;52.184;5.406;2023-07-24T11:08:10;4.05;;;3.70;;
16642;SDS011;8435;52.184;5.406;2023-07-24T11:10:43;4.15;;;3.75;;
16642;SDS011;8435;52.184;5.406;2023-07-24T11:13:12;5.18;;;3.90;;
16642;SDS011;8435;52.184;5.406;2023-07-24T11:15:39;4.40;;;4.00;;
16642;SDS011;8435;52.184;5.406;2023-07-24T11:18:06;5.10;;;4.60;;
16642;SDS011;8435;52.184;5.406;2023-07-24T11:20:33;4.15;;;3.75;;
16642;SDS011;8435;52.184;5.406;2023-07-24T11:23:04;5.15;;;4.43;;
16642;SDS011;8435;52.184;5.406;2023-07-24T11:25:31;4.10;;;3.80;;
16642;SDS011;8435;52.184;5.406;2023-07-24T11:27:58;5.55;;;4.05;;
16642;SDS011;8435;52.184;5.406;2023-07-24T11:30:25;4.35;;;3.95;;
16642;SDS011;8435;52.184;5.406;2023-07-24T11:32:52;4.70;;;4.03;;
16642;SDS011;8435;52.184;5.406;2023-07-24T11:35:19;4.20;;;3.90;;
16642;SDS011;8435;52.184;5.406;2023-07-24T11:37:47;5.43;;;4.18;;
16642;SDS011;8435;52.184;5.406;2023-07-24T11:40:15;6.63;;;3.78;;
16642;SDS011;8435;52.184;5.406;2023-07-24T11:42:45;3.95;;;3.63;;
16642;SDS011;8435;52.184;5.406;2023-07-24T11:45:13;3.53;;;3.22;;
16642;SDS011;8435;52.184;5.406;2023-07-24T11:47:41;4.10;;;3.70;;
16642;SDS011;8435;52.184;5.406;2023-07-24T11:50:08;4.28;;;3.65;;
16642;SDS011;8435;52.184;5.406;2023-07-24T11:52:39;4.40;;;4.00;;
16642;SDS011;8435;52.184;5.406;2023-07-24T11:55:08;4.30;;;3.80;;
16642;SDS011;8435;52.184;5.406;2023-07-24T11:57:37;4.72;;;3.95;;
16642;SDS011;8435;52.184;5.406;2023-07-24T12:00:04;4.53;;;4.13;;
16642;SDS011;8435;52.184;5.406;2023-07-24T12:02:35;4.88;;;4.40;;
16642;SDS011;8435;52.184;5.406;2023-07-24T12:05:01;4.68;;;3.50;;
16642;SDS011;8435;52.184;5.406;2023-07-24T12:07:32;4.38;;;4.07;;
16642;SDS011;8435;52.184;5.406;2023-07-24T12:09:59;4.18;;;3.78;;
16642;SDS011;8435;52.184;5.406;2023-07-24T12:12:37;5.68;;;4.40;;
16642;SDS011;8435;52.184;5.406;2023-07-24T12:15:06;4.40;;;4.03;;
16642;SDS011;8435;52.184;5.406;2023-07-24T12:17:33;4.72;;;3.70;;
16642;SDS011;8435;52.184;5.406;2023-07-24T12:20:00;5.53;;;4.00;;
16642;SDS011;8435;52.184;5.406;2023-07-24T12:22:29;4.70;;;4.30;;
16642;SDS011;8435;52.184;5.406;2023-07-24T12:24:56;4.10;;;3.80;;
16642;SDS011;8435;52.184;5.406;2023-07-24T12:27:22;4.38;;;3.72;;
16642;SDS011;8435;52.184;5.406;2023-07-24T12:29:51;4.70;;;4.22;;
16642;SDS011;8435;52.184;5.406;2023-07-24T12:32:19;5.28;;;4.78;;
16642;SDS011;8435;52.184;5.406;2023-07-24T12:34:52;6.68;;;4.75;;
16642;SDS011;8435;52.184;5.406;2023-07-24T12:37:19;5.07;;;4.57;;
16642;SDS011;8435;52.184;5.406;2023-07-24T12:39:47;6.80;;;4.53;;
16642;SDS011;8435;52.184;5.406;2023-07-24T12:42:14;7.45;;;4.93;;
16642;SDS011;8435;52.184;5.406;2023-07-24T12:44:46;6.00;;;4.60;;
16642;SDS011;8435;52.184;5.406;2023-07-24T12:47:14;5.30;;;4.72;;
16642;SDS011;8435;52.184;5.406;2023-07-24T12:49:41;6.43;;;5.55;;
16642;SDS011;8435;52.184;5.406;2023-07-24T12:52:07;6.93;;;4.72;;
16642;SDS011;8435;52.184;5.406;2023-07-24T12:54:34;3.67;;;3.30;;
16642;SDS011;8435;52.184;5.406;2023-07-24T12:57:01;2.78;;;2.58;;
16642;SDS011;8435;52.184;5.406;2023-07-24T12:59:29;2.50;;;2.28;;
16642;SDS011;8435;52.184;5.406;2023-07-24T13:01:56;2.88;;;2.20;;
16642;SDS011;8435;52.184;5.406;2023-07-24T13:04:24;1.85;;;1.63;;
16642;SDS011;8435;52.184;5.406;2023-07-24T13:06:51;2.85;;;2.10;;
16642;SDS011;8435;52.184;5.406;2023-07-24T13:09:19;1.70;;;1.60;;
16642;SDS011;8435;52.184;5.406;2023-07-24T13:11:47;1.73;;;1.60;;
16642;SDS011;8435;52.184;5.406;2023-07-24T13:14:16;2.10;;;1.90;;
16642;SDS011;8435;52.184;5.406;2023-07-24T13:16:43;2.15;;;1.98;;
16642;SDS011;8435;52.184;5.406;2023-07-24T13:19:10;2.10;;;2.00;;
16642;SDS011;8435;52.184;5.406;2023-07-24T13:21:38;2.88;;;2.67;;
16642;SDS011;8435;52.184;5.406;2023-07-24T13:24:05;3.00;;;2.80;;
16642;SDS011;8435;52.184;5.406;2023-07-24T13:26:32;3.25;;;2.95;;
16642;SDS011;8435;52.184;5.406;2023-07-24T13:28:59;3.67;;;3.35;;
16642;SDS011;8435;52.184;5.406;2023-07-24T13:31:26;3.42;;;3.22;;
16642;SDS011;8435;52.184;5.406;2023-07-24T13:33:54;3.65;;;3.35;;
16642;SDS011;8435;52.184;5.406;2023-07-24T13:36:21;3.70;;;3.40;;
16642;SDS011;8435;52.184;5.406;2023-07-24T13:38:49;3.65;;;3.35;;
16642;SDS011;8435;52.184;5.406;2023-07-24T13:41:17;4.53;;;4.13;;
16642;SDS011;8435;52.184;5.406;2023-07-24T13:43:44;4.53;;;4.13;;
16642;SDS011;8435;52.184;5.406;2023-07-24T13:46:10;4.43;;;4.03;;
16642;SDS011;8435;52.184;5.406;2023-07-24T13:48:43;4.43;;;4.00;;
16642;SDS011;8435;52.184;5.406;2023-07-24T13:51:10;4.53;;;4.10;;
16642;SDS011;8435;52.184;5.406;2023-07-24T13:53:37;4.85;;;4.45;;
16642;SDS011;8435;52.184;5.406;2023-07-24T13:56:06;4.30;;;3.92;;
16642;SDS011;8435;52.184;5.406;2023-07-24T13:58:33;4.65;;;4.20;;
16642;SDS011;8435;52.184;5.406;2023-07-24T14:01:00;3.90;;;3.60;;
16642;SDS011;8435;52.184;5.406;2023-07-24T14:03:26;3.95;;;3.65;;
16642;SDS011;8435;52.184;5.406;2023-07-24T14:05:54;3.35;;;3.15;;
16642;SDS011;8435;52.184;5.406;2023-07-24T14:08:22;2.35;;;2.25;;
16642;SDS011;8435;52.184;5.406;2023-07-24T14:10:49;2.45;;;2.25;;
16642;SDS011;8435;52.184;5.406;2023-07-24T14:13:17;2.40;;;2.20;;
16642;SDS011;8435;52.184;5.406;2023-07-24T14:15:44;2.60;;;2.40;;
16642;SDS011;8435;52.184;5.406;2023-07-24T14:18:11;2.40;;;2.20;;
16642;SDS011;8435;52.184;5.406;2023-07-24T14:20:38;2.30;;;2.10;;
16642;SDS011;8435;52.184;5.406;2023-07-24T14:23:05;2.75;;;2.03;;
16642;SDS011;8435;52.184;5.406;2023-07-24T14:25:33;2.25;;;2.13;;
16642;SDS011;8435;52.184;5.406;2023-07-24T14:27:59;4.28;;;2.20;;
16642;SDS011;8435;52.184;5.406;2023-07-24T14:30:28;2.45;;;2.25;;
16642;SDS011;8435;52.184;5.406;2023-07-24T14:32:55;3.75;;;2.28;;
16642;SDS011;8435;52.184;5.406;2023-07-24T14:35:22;5.05;;;2.22;;
16642;SDS011;8435;52.184;5.406;2023-07-24T14:37:49;2.70;;;2.00;;
16642;SDS011;8435;52.184;5.406;2023-07-24T14:40:15;2.28;;;1.90;;
16642;SDS011;8435;52.184;5.406;2023-07-24T14:42:42;3.22;;;2.17;;
16642;SDS011;8435;52.184;5.406;2023-07-24T14:45:09;4.35;;;2.25;;
16642;SDS011;8435;52.184;5.406;2023-07-24T14:47:38;3.75;;;1.90;;
16642;SDS011;8435;52.184;5.406;2023-07-24T14:50:05;2.17;;;1.95;;
16642;SDS011;8435;52.184;5.406;2023-07-24T14:52:33;1.80;;;1.65;;
16642;SDS011;8435;52.184;5.406;2023-07-24T14:54:59;2.33;;;1.77;;
16642;SDS011;8435;52.184;5.406;2023-07-24T14:57:26;1.90;;;1.50;;
16642;SDS011;8435;52.184;5.406;2023-07-24T14:59:53;1.98;;;1.80;;
16642;SDS011;8435;52.184;5.406;2023-07-24T15:02:22;2.90;;;2.22;;
16642;SDS011;8435;52.184;5.406;2023-07-24T15:04:50;3.33;;;2.08;;